Time;durP1;ratioP1;P1;durP2;ratioP2;P2;SDS_P1;SDS_P2;PMS_P1;PMS_P2;Temp;Humidity;BMP_temperature;BMP_pressure;BME280_temperature;BME280_humidity;BME280_pressure;Samples;Min_cycle;Max_cycle;Signal;HPM_P1;HPM_P2
2022/04/29 00:02:11;;;;;;;10.80;4.40;;;;;;;5.74;100.00;103126.91;10323985;28;20118;-73
2022/04/29 00:07:12;;;;;;;13.40;4.47;;;;;;;5.68;100.00;103130.28;10314091;28;20384;-73
2022/04/29 00:12:12;;;;;;;9.85;4.90;;;;;;;5.51;100.00;103128.53;10310699;28;20043;-73
2022/04/29 00:17:13;;;;;;;10.30;4.80;;;;;;;5.54;100.00;103133.66;10310965;28;20019;-74
2022/04/29 00:22:14;;;;;;;10.75;4.20;;;;;;;5.10;100.00;103066.41;10311121;28;20122;-73
2022/04/29 00:27:14;;;;;;;14.15;5.20;;;;;;;5.47;100.00;103134.31;10311125;28;20051;-74
2022/04/29 00:32:16;;;;;;;13.82;4.60;;;;;;;5.44;100.00;103118.28;10310145;28;20098;-73
2022/04/29 00:37:17;;;;;;;15.93;5.20;;;;;;;5.33;100.00;103099.44;10308947;28;20057;-73
2022/04/29 00:42:21;;;;;;;11.98;5.18;;;;;;;5.47;100.00;103131.59;10308780;28;20043;-73
2022/04/29 00:47:22;;;;;;;8.23;4.40;;;;;;;5.47;100.00;103133.47;10309720;28;20029;-73
2022/04/29 00:52:22;;;;;;;8.10;4.75;;;;;;;5.40;100.00;103122.34;10308790;28;20062;-73
2022/04/29 00:57:34;;;;;;;13.50;5.22;;;;;;;5.40;100.00;103102.38;10308491;28;20039;-73
2022/04/29 01:02:38;;;;;;;18.10;5.10;;;;;;;5.41;100.00;103107.66;10308822;28;20077;-73
2022/04/29 01:07:40;;;;;;;13.25;5.45;;;;;;;5.37;100.00;103111.75;10307932;28;20062;-73
2022/04/29 01:12:43;;;;;;;16.88;5.97;;;;;;;5.25;100.00;103122.13;10306407;28;20041;-73
2022/04/29 01:17:45;;;;;;;11.27;4.53;;;;;;;5.31;100.00;103100.63;10334179;28;20026;-73
2022/04/29 01:22:46;;;;;;;9.32;4.53;;;;;;;5.18;100.00;103095.63;10346731;28;20078;-75
2022/04/29 01:27:46;;;;;;;13.23;5.38;;;;;;;5.02;100.00;103083.63;10348501;28;20097;-73
2022/04/29 01:32:47;;;;;;;14.38;5.40;;;;;;;4.98;100.00;103082.25;10347582;28;20439;-73
2022/04/29 01:37:47;;;;;;;14.02;6.03;;;;;;;4.87;100.00;103081.66;10322475;28;20121;-73
2022/04/29 01:42:48;;;;;;;12.27;4.93;;;;;;;4.84;100.00;103077.38;10329670;28;20026;-73
2022/04/29 01:47:48;;;;;;;11.25;5.55;;;;;;;4.75;100.00;103067.44;10347856;28;20035;-73
2022/04/29 01:52:49;;;;;;;26.80;6.72;;;;;;;4.74;100.00;103071.19;10346922;28;20050;-73
2022/04/29 01:57:49;;;;;;;8.93;5.35;;;;;;;4.67;100.00;103061.91;10330772;28;20088;-73
2022/04/29 02:02:50;;;;;;;13.52;6.13;;;;;;;4.72;100.00;103078.69;10320970;28;20058;-73
2022/04/29 02:07:50;;;;;;;9.95;6.05;;;;;;;4.40;100.00;103021.03;10305971;28;20042;-73
2022/04/29 02:12:51;;;;;;;12.52;5.60;;;;;;;4.71;100.00;103061.44;10305488;28;20031;-73
2022/04/29 02:17:51;;;;;;;9.73;5.38;;;;;;;4.87;100.00;103081.66;10307132;28;20031;-73
2022/04/29 02:22:53;;;;;;;14.38;5.63;;;;;;;4.83;100.00;103081.97;10306696;28;20051;-73
2022/04/29 02:27:54;;;;;;;10.30;4.68;;;;;;;4.73;100.00;103064.84;10306746;28;20106;-72
2022/04/29 02:32:54;;;;;;;10.70;5.28;;;;;;;4.70;100.00;103080.72;10306211;28;20042;-73
2022/04/29 02:37:54;;;;;;;10.25;5.82;;;;;;;4.61;100.00;103050.66;10304231;28;20042;-73
2022/04/29 02:42:55;;;;;;;12.07;6.05;;;;;;;4.59;100.00;103063.59;10305868;28;20411;-73
2022/04/29 02:47:55;;;;;;;18.00;7.07;;;;;;;4.56;100.00;103044.81;10306317;28;20026;-73
2022/04/29 02:52:56;;;;;;;14.60;5.40;;;;;;;4.55;100.00;103054.03;10306654;28;20077;-73
2022/04/29 02:57:56;;;;;;;13.52;5.60;;;;;;;4.54;100.00;103044.13;10305781;28;20023;-73
2022/04/29 03:02:57;;;;;;;12.55;6.00;;;;;;;4.56;100.00;103063.91;10304834;28;20035;-73
2022/04/29 03:07:57;;;;;;;11.57;6.25;;;;;;;4.53;100.00;103053.31;10304192;28;20035;-72
2022/04/29 03:12:58;;;;;;;13.45;5.57;;;;;;;4.04;100.00;102982.94;10319993;28;20093;-73
2022/04/29 03:23:17;;;;;;;14.73;6.22;;;;;;;4.62;100.00;103048.78;10305634;28;20051;-72
2022/04/29 03:28:18;;;;;;;14.05;5.68;;;;;;;4.80;100.00;103051.44;10320613;28;20042;-73
2022/04/29 03:33:19;;;;;;;13.05;5.72;;;;;;;4.88;100.00;103054.22;10343764;28;20101;-73
2022/04/29 03:38:19;;;;;;;15.70;6.38;;;;;;;4.90;100.00;103033.06;10349180;28;20038;-73
2022/04/29 03:43:20;;;;;;;13.55;5.68;;;;;;;4.94;100.00;103034.44;10352680;28;20440;-73
2022/04/29 03:48:20;;;;;;;13.50;6.03;;;;;;;5.11;100.00;103037.25;10351652;28;20057;-73
2022/04/29 03:53:24;;;;;;;13.95;6.07;;;;;;;4.96;100.00;103010.56;10353413;28;20030;-73
2022/04/29 03:58:24;;;;;;;16.75;5.90;;;;;;;5.20;100.00;103038.97;10340016;28;20058;-73
2022/04/29 04:03:25;;;;;;;17.25;6.47;;;;;;;5.19;100.00;103046.31;10316645;28;20031;-73
2022/04/29 04:08:25;;;;;;;14.32;5.63;;;;;;;5.20;100.00;103049.91;10342692;28;20034;-73
2022/04/29 04:13:26;;;;;;;13.90;6.05;;;;;;;5.20;100.00;103045.28;10351572;28;20042;-73
2022/04/29 04:18:26;;;;;;;10.40;6.45;;;;;;;5.28;100.00;103052.66;10351702;28;20057;-73
2022/04/29 04:23:27;;;;;;;16.20;6.68;;;;;;;5.22;100.00;103031.47;10334372;28;20038;-73
2022/04/29 04:28:27;;;;;;;10.65;6.25;;;;;;;5.37;100.00;103048.91;10351661;28;20399;-73
2022/04/29 04:33:28;;;;;;;14.00;6.18;;;;;;;5.46;100.00;103060.75;10348744;28;20045;-73
2022/04/29 04:38:28;;;;;;;14.95;6.72;;;;;;;5.54;100.00;103057.16;10350529;28;20037;-73
2022/04/29 04:43:29;;;;;;;14.25;7.15;;;;;;;5.62;100.00;103057.16;10349328;28;20026;-73
2022/04/29 04:48:29;;;;;;;14.55;7.03;;;;;;;5.74;100.00;103046.78;10350182;28;20046;-73
2022/04/29 04:53:30;;;;;;;15.05;6.97;;;;;;;5.76;100.00;103040.13;10351750;28;20030;-73
2022/04/29 04:58:32;;;;;;;11.48;5.88;;;;;;;5.96;100.00;103068.03;10350523;28;20050;-73
2022/04/29 05:03:33;;;;;;;15.27;6.32;;;;;;;6.01;100.00;103051.09;10343078;28;20042;-73
2022/04/29 05:08:33;;;;;;;17.15;6.18;;;;;;;6.28;100.00;103060.00;10320243;28;20026;-73
2022/04/29 05:13:34;;;;;;;12.57;6.07;;;;;;;6.42;100.00;103056.56;10309295;28;20026;-74
2022/04/29 05:18:34;;;;;;;15.55;6.75;;;;;;;6.51;100.00;103055.53;10309722;28;20038;-73
2022/04/29 05:23:36;;;;;;;10.60;5.97;;;;;;;6.57;100.00;103043.84;10309190;28;20043;-73
2022/04/29 05:28:37;;;;;;;11.05;5.90;;;;;;;6.75;100.00;103051.84;10306226;28;20090;-73
2022/04/29 05:33:37;;;;;;;9.38;5.60;;;;;;;6.93;100.00;103043.44;10308436;28;20427;-72
2022/04/29 05:43:57;;;;;;;8.88;4.00;;;;;;;7.60;100.00;103061.25;10306234;28;20070;-73
2022/04/29 05:48:57;;;;;;;7.28;3.78;;;;;;;8.20;100.00;103082.38;10308959;28;20398;-73
2022/04/29 05:54:00;;;;;;;7.30;3.17;;;;;;;8.59;100.00;103077.78;10308414;28;20039;-74
2022/04/29 05:59:00;;;;;;;6.15;2.50;;;;;;;8.69;100.00;103007.81;10307444;28;20035;-74
2022/04/29 06:04:01;;;;;;;8.27;2.78;;;;;;;9.24;100.00;103059.69;10324019;28;20026;-74
2022/04/29 06:09:01;;;;;;;5.82;2.20;;;;;;;9.62;100.00;103051.28;10344721;28;20033;-74
2022/04/29 06:14:02;;;;;;;6.93;2.30;;;;;;;9.75;100.00;103039.56;10307334;28;20328;-73
2022/04/29 06:19:02;;;;;;;8.77;1.83;;;;;;;9.70;100.00;103041.00;10290256;28;20042;-73
2022/04/29 06:24:03;;;;;;;7.18;1.70;;;;;;;9.34;100.00;103021.75;10306714;28;20058;-72
2022/04/29 06:29:04;;;;;;;4.97;1.60;;;;;;;9.12;100.00;103028.28;10306479;28;20518;-72
2022/04/29 06:34:04;;;;;;;4.75;1.90;;;;;;;9.11;100.00;103040.28;10306541;28;20039;-72
2022/04/29 06:39:05;;;;;;;5.38;2.50;;;;;;;9.02;100.00;103051.38;10318707;28;20034;-71
2022/04/29 06:44:05;;;;;;;3.97;2.17;;;;;;;9.16;100.00;103046.06;10345442;28;20035;-72
2022/04/29 06:49:06;;;;;;;3.08;1.52;;;;;;;8.99;100.00;102999.56;10358778;28;20038;-72
2022/04/29 06:54:06;;;;;;;7.63;1.70;;;;;;;9.28;100.00;103044.50;10380784;28;20080;-72
2022/04/29 06:59:07;;;;;;;2.85;1.40;;;;;;;9.39;100.00;103046.78;10385905;28;20033;-73
2022/04/29 07:04:07;;;;;;;5.85;1.80;;;;;;;9.47;100.00;103056.81;10384425;28;20022;-73
2022/04/29 07:09:08;;;;;;;7.70;1.90;;;;;;;9.37;100.00;103048.88;10380440;28;20030;-74
2022/04/29 07:14:08;;;;;;;3.63;1.30;;;;;;;9.24;100.00;103065.19;10391120;28;20053;-73
2022/04/29 07:19:09;;;;;;;3.92;1.40;;;;;;;9.05;100.00;103069.38;10395061;28;20053;-73
2022/04/29 07:24:09;;;;;;;2.80;1.50;;;;;;;8.82;100.00;103047.50;10392405;28;20057;-73
2022/04/29 07:29:09;;;;;;;2.95;1.30;;;;;;;8.98;100.00;103072.03;10393091;28;20038;-74
2022/04/29 07:34:10;;;;;;;7.70;2.03;;;;;;;8.96;100.00;103065.03;10376118;28;20027;-73
2022/04/29 07:44:29;;;;;;;2.20;1.35;;;;;;;9.43;100.00;103050.84;10312101;28;20031;-73
2022/04/29 07:49:30;;;;;;;6.03;1.50;;;;;;;9.50;100.00;103053.66;10313421;28;20060;-73
2022/04/29 07:54:30;;;;;;;4.60;1.90;;;;;;;9.77;100.00;103053.97;10312223;28;20045;-74
2022/04/29 07:59:31;;;;;;;2.58;1.60;;;;;;;10.08;100.00;103050.88;10311969;28;20035;-73
2022/04/29 08:04:31;;;;;;;5.43;2.22;;;;;;;10.32;100.00;103046.88;10361835;28;20042;-73
2022/04/29 08:09:32;;;;;;;6.43;1.77;;;;;;;10.42;100.00;103046.56;10333084;28;20312;-72
2022/04/29 08:14:32;;;;;;;3.95;1.50;;;;;;;10.55;100.00;103027.34;10323094;28;20042;-73
2022/04/29 08:19:33;;;;;;;8.15;1.80;;;;;;;10.82;100.00;103038.53;10325938;28;20062;-72
2022/04/29 08:24:33;;;;;;;10.50;1.60;;;;;;;11.01;100.00;103035.03;10335757;28;20049;-74
2022/04/29 08:29:34;;;;;;;5.30;1.65;;;;;;;11.26;99.89;103023.47;10391355;28;20030;-72
2022/04/29 08:34:34;;;;;;;3.80;1.88;;;;;;;11.34;98.21;103033.47;10389667;28;20098;-72
2022/04/29 08:39:35;;;;;;;3.78;1.65;;;;;;;11.24;96.89;103028.34;10354032;28;20490;-72
2022/04/29 08:44:35;;;;;;;4.00;1.95;;;;;;;10.81;99.78;103045.97;10339911;28;20483;-72
2022/04/29 08:49:36;;;;;;;4.63;1.85;;;;;;;10.83;99.68;103037.47;10365138;28;20466;-72
2022/04/29 08:59:59;;;;;;;8.00;2.60;;;;;;;10.89;96.55;103042.16;10390496;28;20025;-72
2022/04/29 09:05:00;;;;;;;5.93;2.25;;;;;;;10.64;99.59;103052.84;10389616;28;20037;-73
2022/04/29 09:10:04;;;;;;;7.32;2.05;;;;;;;10.54;100.00;103031.16;10369115;28;20057;-73
2022/04/29 09:15:14;;;;;;;5.47;2.08;;;;;;;10.82;99.66;103039.38;10330543;28;20034;-74
2022/04/29 09:20:20;;;;;;;5.18;2.53;;;;;;;11.16;98.87;103047.81;10372396;28;20032;-74
2022/04/29 09:25:21;;;;;;;5.40;1.65;;;;;;;11.43;96.27;103012.91;10387901;28;20046;-74
2022/04/29 09:30:55;;;;;;;4.05;1.90;;;;;;;11.74;95.88;103039.09;10387246;28;20128;-73
2022/04/29 09:35:55;;;;;;;4.50;1.73;;;;;;;11.76;96.73;103003.88;10383444;28;20042;-73
2022/04/29 09:40:56;;;;;;;6.97;2.25;;;;;;;11.67;94.47;103015.09;10386882;28;20466;-73
2022/04/29 09:46:15;;;;;;;8.73;1.98;;;;;;;11.80;95.15;103028.09;10387093;28;20113;-73
2022/04/29 09:51:16;;;;;;;11.40;2.85;;;;;;;11.54;96.09;102989.41;10388350;28;20392;-72
2022/04/29 09:56:16;;;;;;;4.18;1.90;;;;;;;11.95;93.95;103025.16;10369340;28;20026;-72
2022/04/29 10:01:18;;;;;;;9.40;2.50;;;;;;;11.95;94.75;103030.69;10388218;28;20037;-73
2022/04/29 10:06:18;;;;;;;4.82;1.95;;;;;;;11.69;89.36;103014.91;10346710;28;20433;-73
2022/04/29 10:11:21;;;;;;;7.70;1.90;;;;;;;11.68;90.89;103035.28;10368664;28;20071;-73
2022/04/29 10:16:22;;;;;;;5.07;2.00;;;;;;;11.74;87.59;103012.38;10369171;28;20068;-73
2022/04/29 10:21:22;;;;;;;5.70;1.75;;;;;;;12.23;87.79;103007.53;10384824;28;20486;-73
2022/04/29 10:26:23;;;;;;;9.70;3.13;;;;;;;12.47;85.61;103022.59;10369873;28;20383;-72
2022/04/29 10:31:26;;;;;;;7.28;1.70;;;;;;;12.44;85.07;103018.38;10370071;28;20069;-72
2022/04/29 10:36:27;;;;;;;2.40;1.42;;;;;;;12.55;84.66;103013.22;10323748;28;20036;-72
2022/04/29 10:41:27;;;;;;;5.47;1.85;;;;;;;12.62;85.39;103014.06;10379922;28;20022;-73
2022/04/29 10:46:36;;;;;;;13.88;3.00;;;;;;;12.54;85.10;102989.44;10384696;28;20026;-73
2022/04/29 10:51:37;;;;;;;5.60;2.15;;;;;;;12.42;85.33;103014.09;10380635;28;20026;-73
2022/04/29 10:56:37;;;;;;;4.07;2.78;;;;;;;11.93;87.41;103021.78;10384816;28;20053;-73
2022/04/29 11:01:39;;;;;;;4.15;2.70;;;;;;;11.68;87.95;103008.53;10368415;28;20076;-72
2022/04/29 11:06:45;;;;;;;7.78;3.22;;;;;;;11.68;88.37;103002.19;10378093;28;20041;-74
2022/04/29 11:11:45;;;;;;;4.70;2.00;;;;;;;11.77;87.65;103016.63;10366966;28;20029;-72
2022/04/29 11:16:58;;;;;;;6.68;2.70;;;;;;;11.85;88.56;103006.22;10385274;28;20467;-74
2022/04/29 11:27:29;;;;;;;7.03;3.20;;;;;;;11.45;89.61;103013.56;10382537;28;20045;-73
2022/04/29 11:32:30;;;;;;;7.82;3.35;;;;;;;11.24;89.17;103022.84;10383373;28;20043;-73
2022/04/29 11:37:34;;;;;;;8.93;3.10;;;;;;;11.22;90.03;103014.75;10383697;28;20042;-74
2022/04/29 11:42:34;;;;;;;6.38;2.95;;;;;;;11.48;93.29;103024.19;10378862;28;20034;-72
2022/04/29 11:47:36;;;;;;;10.27;3.72;;;;;;;11.57;90.25;103005.53;10383447;28;20026;-72
2022/04/29 11:52:39;;;;;;;6.70;3.53;;;;;;;11.67;89.39;103003.22;10367255;28;20033;-73
2022/04/29 11:57:44;;;;;;;9.73;3.10;;;;;;;11.76;87.03;103012.16;10387004;28;20033;-72
2022/04/29 12:02:47;;;;;;;4.05;2.63;;;;;;;11.68;90.13;103027.00;10387558;28;20066;-73
2022/04/29 12:07:47;;;;;;;6.78;3.30;;;;;;;11.37;87.13;102999.97;10352756;28;20057;-73
2022/04/29 12:12:49;;;;;;;6.63;3.08;;;;;;;11.43;88.78;103001.88;10349918;28;20050;-71
2022/04/29 12:17:50;;;;;;;6.57;2.85;;;;;;;11.60;87.71;103003.22;10351818;28;20026;-72
2022/04/29 12:22:52;;;;;;;8.50;2.58;;;;;;;11.87;86.50;102973.75;10351428;28;20406;-70
2022/04/29 12:28:10;;;;;;;4.97;2.30;;;;;;;12.18;85.76;102997.13;10350748;28;20038;-73
2022/04/29 12:38:34;;;;;;;2.88;1.90;;;;;;;12.25;82.36;102948.25;10332007;28;20037;-72
2022/04/29 12:43:41;;;;;;;5.95;2.45;;;;;;;12.39;80.63;102938.03;10348732;28;20054;-72
2022/04/29 12:48:52;;;;;;;8.32;2.10;;;;;;;12.17;78.51;102940.19;10359994;28;20026;-71
2022/04/29 12:53:52;;;;;;;3.42;1.67;;;;;;;12.31;79.31;102952.91;10371294;28;20052;-72
2022/04/29 12:58:53;;;;;;;7.95;2.10;;;;;;;12.01;78.24;102924.94;10371495;28;20038;-72
2022/04/29 13:03:55;;;;;;;5.00;2.10;;;;;;;11.91;81.54;102947.44;10384243;28;20394;-72
2022/04/29 13:08:56;;;;;;;5.15;2.42;;;;;;;11.77;82.88;102950.41;10368241;28;20045;-72
2022/04/29 13:13:57;;;;;;;3.97;2.13;;;;;;;11.81;80.83;102951.66;10371089;28;20106;-72
2022/04/29 13:18:58;;;;;;;7.00;2.22;;;;;;;11.80;80.31;102933.41;10389041;28;20089;-71
2022/04/29 13:23:58;;;;;;;6.05;2.17;;;;;;;11.99;80.09;102938.13;10388029;28;20046;-72
2022/04/29 13:28:59;;;;;;;4.40;2.00;;;;;;;12.46;81.64;102943.53;10388336;28;20132;-72
2022/04/29 13:33:59;;;;;;;3.75;1.60;;;;;;;12.78;78.11;102941.75;10358575;28;20031;-72
2022/04/29 13:39:00;;;;;;;6.00;2.35;;;;;;;12.91;76.40;102899.38;10307955;28;20590;-72
2022/04/29 13:44:00;;;;;;;8.13;2.30;;;;;;;12.82;77.85;102915.38;10307244;28;20019;-72
2022/04/29 13:49:01;;;;;;;6.10;1.90;;;;;;;12.37;79.16;102922.75;10307455;28;20042;-73
2022/04/29 13:54:02;;;;;;;4.63;2.25;;;;;;;11.66;82.60;102929.81;10322920;28;20399;-72
2022/04/29 13:59:02;;;;;;;5.47;2.78;;;;;;;11.21;85.09;102874.38;10322181;28;20069;-72
2022/04/29 14:04:03;;;;;;;4.20;2.60;;;;;;;11.56;84.20;102919.19;10336848;28;20026;-72
2022/04/29 14:09:03;;;;;;;7.88;2.38;;;;;;;12.26;82.30;102893.91;10355806;28;20038;-72
2022/04/29 14:14:04;;;;;;;4.72;2.55;;;;;;;13.42;80.76;102884.63;10383897;28;20038;-73
2022/04/29 14:19:04;;;;;;;4.47;1.80;;;;;;;14.65;75.39;102873.81;10387419;28;20038;-74
2022/04/29 14:24:06;;;;;;;3.88;2.17;;;;;;;14.50;74.64;102882.50;10369686;28;20076;-73
2022/04/29 14:29:06;;;;;;;5.07;2.38;;;;;;;13.17;79.26;102879.03;10387153;28;20034;-75
2022/04/29 14:34:06;;;;;;;5.75;2.58;;;;;;;12.71;81.19;102897.56;10371032;28;20046;-74
2022/04/29 14:39:07;;;;;;;7.97;2.90;;;;;;;12.60;84.82;102909.28;10310625;28;20587;-73
2022/04/29 14:44:12;;;;;;;5.65;3.28;;;;;;;12.53;87.96;102916.75;10383956;28;20022;-73
2022/04/29 14:49:13;;;;;;;6.97;3.70;;;;;;;12.06;88.70;102921.53;10385517;28;20045;-72
2022/04/29 14:54:13;;;;;;;8.15;3.58;;;;;;;11.14;91.52;102879.00;10384617;28;20041;-72
2022/04/29 14:59:14;;;;;;;6.72;4.65;;;;;;;11.22;94.16;102923.78;10379548;28;20046;-73
2022/04/29 15:04:15;;;;;;;8.68;3.67;;;;;;;11.29;96.37;102927.41;10384668;28;20553;-73
2022/04/29 15:20:14;;;;;;;7.28;3.45;;;;;;;10.95;96.93;102910.97;10304296;28;20051;-73
2022/04/29 15:25:17;;;;;;;7.97;3.80;;;;;;;11.24;95.03;102896.84;10353049;28;20050;-73
2022/04/29 15:30:18;;;;;;;10.68;3.90;;;;;;;11.43;94.24;102910.88;10383855;28;20057;-73
2022/04/29 15:35:18;;;;;;;6.82;3.58;;;;;;;11.16;93.35;102899.78;10388158;28;20049;-71
2022/04/29 15:40:19;;;;;;;10.98;3.47;;;;;;;10.68;97.89;102916.38;10389852;28;20022;-71
2022/04/29 15:45:19;;;;;;;8.73;2.78;;;;;;;10.47;97.16;102898.06;10392575;28;20029;-71
2022/04/29 15:50:20;;;;;;;7.53;2.55;;;;;;;10.68;94.85;102891.59;10391536;28;20022;-71
2022/04/29 15:55:20;;;;;;;4.10;1.90;;;;;;;10.73;92.54;102882.72;10391843;28;20041;-72
2022/04/29 16:00:21;;;;;;;3.92;1.80;;;;;;;10.75;92.48;102875.09;10391873;28;20336;-72
2022/04/29 16:05:25;;;;;;;3.78;1.35;;;;;;;10.91;91.67;102863.69;10327702;28;20058;-71
2022/04/29 16:10:25;;;;;;;3.15;1.98;;;;;;;10.59;91.11;102800.03;10316567;28;20028;-72
2022/04/29 16:15:26;;;;;;;2.33;1.52;;;;;;;10.78;91.46;102853.50;10310061;28;20058;-71
2022/04/29 16:20:33;;;;;;;3.85;2.33;;;;;;;10.72;92.75;102845.22;10309338;28;20034;-69
2022/04/29 16:25:37;;;;;;;;;;;;;;;10.74;91.74;102849.44;10311579;28;20059;-71
2022/04/29 16:30:38;;;;;;;2.88;1.33;;;;;;;10.77;92.75;102839.91;10309851;28;19918;-69
2022/04/29 16:35:38;;;;;;;4.15;1.50;;;;;;;10.79;89.47;102832.28;10311574;28;20035;-69
2022/04/29 16:40:43;;;;;;;4.68;2.00;;;;;;;10.62;94.01;102849.19;10316865;28;20034;-73
2022/04/29 16:45:46;;;;;;;6.32;2.75;;;;;;;10.46;93.51;102838.56;10387463;28;20081;-74
2022/04/29 16:50:46;;;;;;;6.40;2.33;;;;;;;10.44;93.34;102846.19;10389982;28;20033;-73
2022/04/29 16:55:47;;;;;;;6.20;2.03;;;;;;;10.32;94.31;102848.66;10325742;28;20042;-72
2022/04/29 17:00:50;;;;;;;4.30;1.60;;;;;;;10.10;95.09;102865.22;10348500;28;20435;-73
2022/04/29 17:05:50;;;;;;;6.25;1.80;;;;;;;9.97;96.63;102861.56;10348884;28;20058;-72
2022/04/29 17:10:51;;;;;;;6.63;1.58;;;;;;;9.78;96.86;102858.47;10349147;28;20124;-72
2022/04/29 17:15:51;;;;;;;9.80;1.70;;;;;;;9.85;96.31;102875.00;10347781;28;20526;-72
2022/04/29 17:20:52;;;;;;;5.43;1.40;;;;;;;9.64;93.14;102846.50;10346760;28;20031;-73
2022/04/29 17:25:55;;;;;;;6.38;1.52;;;;;;;9.60;95.69;102860.84;10346061;28;20065;-72
2022/04/29 17:30:56;;;;;;;4.93;1.55;;;;;;;9.50;97.59;102873.03;10317927;28;20039;-72
2022/04/29 17:35:56;;;;;;;4.63;1.70;;;;;;;9.18;100.00;102818.63;10316516;28;20022;-71
2022/04/29 17:46:16;;;;;;;5.90;1.60;;;;;;;9.40;100.00;102877.16;10321338;28;20030;-72
2022/04/29 17:51:17;;;;;;;3.03;1.77;;;;;;;9.25;100.00;102869.00;10335905;28;20049;-72
2022/04/29 17:56:17;;;;;;;3.33;1.35;;;;;;;9.08;100.00;102865.66;10335993;28;20037;-72
2022/04/29 18:01:18;;;;;;;4.75;1.27;;;;;;;9.04;100.00;102872.59;10318538;28;20033;-72
2022/04/29 18:06:18;;;;;;;4.85;1.45;;;;;;;8.95;100.00;102876.50;10333147;28;20503;-73
2022/04/29 18:11:19;;;;;;;7.18;1.90;;;;;;;8.84;100.00;102881.47;10310007;28;20126;-73
2022/04/29 18:16:19;;;;;;;6.32;1.70;;;;;;;8.76;100.00;102881.56;10304416;28;20039;-72
2022/04/29 18:21:20;;;;;;;2.75;1.80;;;;;;;8.61;100.00;102878.88;10304265;28;20479;-72
2022/04/29 18:26:20;;;;;;;4.88;1.73;;;;;;;8.54;100.00;102883.44;10305156;28;20506;-72
2022/04/29 18:31:21;;;;;;;3.53;1.58;;;;;;;8.43;100.00;102897.63;10305582;28;20544;-72
2022/04/29 18:36:21;;;;;;;8.10;1.67;;;;;;;8.29;100.00;102902.91;10306963;28;20060;-72
2022/04/29 18:41:22;;;;;;;3.42;1.30;;;;;;;8.06;100.00;102885.66;10302353;28;20042;-73
2022/04/29 18:46:22;;;;;;;5.03;1.67;;;;;;;8.05;100.00;102901.28;10319081;28;20031;-72
2022/04/29 18:51:23;;;;;;;5.07;1.60;;;;;;;7.93;100.00;102907.44;10305305;28;20035;-74
2022/04/29 18:56:23;;;;;;;4.32;1.75;;;;;;;7.80;100.00;102911.66;10302811;28;20034;-72
2022/04/29 19:01:24;;;;;;;4.80;1.90;;;;;;;7.71;100.00;102914.66;10304339;28;20030;-72
2022/04/29 19:06:24;;;;;;;3.92;1.83;;;;;;;7.60;100.00;102914.06;10304926;28;20038;-72
2022/04/29 19:11:25;;;;;;;7.00;2.50;;;;;;;7.39;100.00;102914.75;10313156;28;20042;-75
2022/04/29 19:16:25;;;;;;;6.97;2.63;;;;;;;7.38;100.00;102915.78;10312257;28;20038;-75
2022/04/29 19:21:25;;;;;;;5.88;1.80;;;;;;;7.26;100.00;102895.34;10312743;28;20031;-72
2022/04/29 19:26:26;;;;;;;7.75;2.30;;;;;;;7.36;100.00;102917.00;10312334;28;20062;-75
2022/04/29 19:31:26;;;;;;;4.88;2.33;;;;;;;7.27;100.00;102922.53;10328496;28;20043;-74
2022/04/29 19:36:27;;;;;;;5.45;2.50;;;;;;;7.12;100.00;102904.34;10312452;28;20406;-75
2022/04/29 19:41:27;;;;;;;4.40;2.85;;;;;;;7.21;100.00;102903.22;10312369;28;20090;-75
2022/04/29 19:46:28;;;;;;;5.43;3.40;;;;;;;7.30;100.00;102904.91;10327180;28;20031;-75
2022/04/29 19:51:29;;;;;;;7.25;2.20;;;;;;;7.39;100.00;102922.97;10327539;28;20065;-75
2022/04/29 19:56:30;;;;;;;7.60;2.63;;;;;;;7.19;100.00;102917.13;10312326;28;20038;-75
2022/04/29 20:06:50;;;;;;;11.32;2.83;;;;;;;6.95;100.00;102929.09;10311998;28;20027;-75
2022/04/29 20:11:50;;;;;;;4.80;2.90;;;;;;;6.81;100.00;102927.94;10316207;28;20046;-73
2022/04/29 20:16:51;;;;;;;7.07;3.28;;;;;;;6.64;100.00;102929.91;10350188;28;20034;-75
2022/04/29 20:21:53;;;;;;;9.05;3.80;;;;;;;6.54;100.00;102945.69;10350224;28;20384;-74
2022/04/29 20:26:54;;;;;;;9.07;3.50;;;;;;;6.40;100.00;102940.97;10350276;28;20089;-75
2022/04/29 20:31:54;;;;;;;8.73;3.90;;;;;;;6.26;100.00;102940.66;10349285;28;20062;-75
2022/04/29 20:36:55;;;;;;;7.50;4.03;;;;;;;5.88;100.00;102886.72;10350015;28;20090;-75
2022/04/29 20:47:16;;;;;;;13.30;4.47;;;;;;;6.08;100.00;102942.75;10348447;28;20025;-75
2022/04/29 20:52:17;;;;;;;7.13;4.32;;;;;;;5.98;100.00;102933.88;10348160;28;20046;-75
2022/04/29 20:57:17;;;;;;;11.73;4.90;;;;;;;5.97;100.00;102932.16;10348069;28;20034;-75
2022/04/29 21:02:18;;;;;;;10.18;5.03;;;;;;;6.02;100.00;102947.03;10347708;28;20077;-75
2022/04/29 21:07:19;;;;;;;14.63;6.00;;;;;;;5.86;100.00;102904.13;10347744;28;20053;-77
2022/04/29 21:12:19;;;;;;;8.93;4.68;;;;;;;6.03;100.00;102936.94;10346783;28;20390;-75
2022/04/29 21:17:20;;;;;;;10.00;5.22;;;;;;;5.89;100.00;102921.22;10345968;28;20015;-75
2022/04/29 21:22:21;;;;;;;11.55;5.32;;;;;;;5.88;100.00;102933.19;10348526;28;20499;-74
2022/04/29 21:27:21;;;;;;;10.52;5.25;;;;;;;5.90;100.00;102942.91;10348532;28;20053;-74
2022/04/29 21:32:22;;;;;;;15.02;6.60;;;;;;;5.81;100.00;102939.34;10347188;28;20044;-75
2022/04/29 21:37:22;;;;;;;12.52;5.65;;;;;;;5.67;100.00;102937.28;10308006;28;20479;-75
2022/04/29 21:42:23;;;;;;;11.68;6.40;;;;;;;5.60;100.00;102939.88;10306456;28;20030;-75
2022/04/29 21:47:23;;;;;;;14.45;6.68;;;;;;;5.43;100.00;102935.41;10307830;28;20042;-75
2022/04/29 21:52:24;;;;;;;14.05;5.60;;;;;;;5.21;100.00;102921.38;10315753;28;20034;-75
2022/04/29 21:57:24;;;;;;;10.55;5.80;;;;;;;5.16;100.00;102939.28;10310152;28;20038;-75
2022/04/29 22:02:27;;;;;;;13.27;5.68;;;;;;;4.97;100.00;102927.66;10307681;28;20035;-75
2022/04/29 22:07:29;;;;;;;12.52;5.72;;;;;;;4.87;100.00;102946.03;10307247;28;20103;-75
2022/04/29 22:12:29;;;;;;;11.70;5.95;;;;;;;4.80;100.00;102939.53;10305962;28;20519;-75
2022/04/29 22:17:30;;;;;;;14.32;6.43;;;;;;;4.72;100.00;102937.63;10307382;28;20039;-75
2022/04/29 22:22:30;;;;;;;13.65;6.18;;;;;;;4.70;100.00;102930.63;10307377;28;20027;-74
2022/04/29 22:27:32;;;;;;;13.95;6.20;;;;;;;4.57;100.00;102929.22;10306515;28;20045;-74
2022/04/29 22:32:32;;;;;;;16.95;7.78;;;;;;;4.56;100.00;102916.59;10306964;28;20488;-75
2022/04/29 22:37:34;;;;;;;15.18;6.88;;;;;;;4.63;100.00;102928.56;10305023;28;20572;-74
2022/04/29 22:42:39;;;;;;;14.98;7.57;;;;;;;4.61;100.00;102930.59;10305897;28;20484;-74
2022/04/29 22:47:40;;;;;;;16.48;7.55;;;;;;;4.52;100.00;102925.28;10304910;28;20041;-76
2022/04/29 22:52:41;;;;;;;13.98;7.97;;;;;;;4.47;100.00;102922.19;10305720;28;20038;-75
2022/04/29 22:57:41;;;;;;;18.80;8.23;;;;;;;4.32;100.00;102897.38;10307266;28;20050;-76
2022/04/29 23:02:42;;;;;;;14.10;8.07;;;;;;;4.28;100.00;102898.72;10309106;28;20058;-75
2022/04/29 23:07:42;;;;;;;17.52;7.93;;;;;;;4.34;100.00;102903.53;10304220;28;20043;-75
2022/04/29 23:12:44;;;;;;;15.38;7.60;;;;;;;4.31;100.00;102904.72;10305414;28;20034;-76
2022/04/29 23:23:12;;;;;;;15.20;8.93;;;;;;;4.13;100.00;102877.53;10305555;28;20070;-74
2022/04/29 23:28:13;;;;;;;16.40;9.38;;;;;;;4.19;100.00;102882.31;10304462;28;20049;-75
2022/04/29 23:33:14;;;;;;;20.90;10.88;;;;;;;4.14;100.00;102873.81;10345403;28;20069;-75
2022/04/29 23:38:14;;;;;;;20.52;10.13;;;;;;;4.25;100.00;102886.28;10344179;28;20086;-75
2022/04/29 23:43:15;;;;;;;19.48;9.82;;;;;;;4.29;100.00;102875.91;10346350;28;20034;-75
2022/04/29 23:48:16;;;;;;;19.60;10.27;;;;;;;4.41;100.00;102883.63;10346416;28;20064;-75
2022/04/29 23:53:16;;;;;;;18.55;9.38;;;;;;;4.38;100.00;102866.72;10347560;28;20035;-75
2022/04/29 23:58:17;;;;;;;21.77;10.65;;;;;;;4.37;100.00;102876.78;10351069;28;20088;-75
